Time;durP1;ratioP1;P1;durP2;ratioP2;P2;SDS_P1;SDS_P2;PMS_P1;PMS_P2;Temp;Humidity;BMP_temperature;BMP_pressure;BME280_temperature;BME280_humidity;BME280_pressure;Samples;Min_cycle;Max_cycle;Signal;HPM_P1;HPM_P2
2022/02/07 15:56:03;;;;;;;;;;;1.50;99.90;;;;;;5098799;27;19913;-95
2022/02/07 15:58:28;;;;;;;;;;;1.50;99.90;;;;;;5081487;28;19916;-96
2022/02/07 16:00:54;;;;;;;;;;;1.60;99.90;;;;;;5072462;28;19932;-96
2022/02/07 16:03:19;;;;;;;;;;;1.70;99.90;;;;;;5067270;28;19931;-96
2022/02/07 16:05:45;;;;;;;;;;;1.80;99.90;;;;;;5082899;28;19916;-95
2022/02/07 16:08:11;;;;;;;;;;;1.90;99.90;;;;;;5074236;28;19931;-96
2022/02/07 16:10:38;;;;;;;;;;;2.00;99.90;;;;;;5075582;28;19950;-96
2022/02/07 16:13:10;;;;;;;;;;;2.10;99.90;;;;;;5076226;28;19913;-96
2022/02/07 16:15:37;;;;;;;;;;;2.20;99.90;;;;;;5054257;28;20361;-94
2022/02/07 16:18:03;;;;;;;;;;;2.30;99.90;;;;;;5082811;28;19940;-96
2022/02/07 16:20:29;;;;;;;;;;;2.40;99.90;;;;;;5064789;28;19912;-96
2022/02/07 16:22:54;;;;;;;;;;;2.40;99.90;;;;;;5077495;28;19909;-95
2022/02/07 16:25:20;;;;;;;;;;;2.50;99.90;;;;;;5071087;28;19916;-94
2022/02/07 16:27:46;;;;;;;;;;;2.60;99.90;;;;;;5063026;28;19999;-95
2022/02/07 16:30:11;;;;;;;;;;;2.60;99.90;;;;;;5061169;28;19959;-96
2022/02/07 16:32:37;;;;;;;;;;;2.70;99.90;;;;;;5072864;28;19909;-96
2022/02/07 16:35:02;;;;;;;;;;;2.70;99.90;;;;;;5071400;28;19912;-95
2022/02/07 16:37:28;;;;;;;;;;;2.80;99.90;;;;;;5058890;28;20280;-96
2022/02/07 18:37:51;;;;;;;;;;;0.60;99.90;;;;;;5152804;27;19920;-96
2022/02/07 18:40:28;;;;;;;;;;;0.60;99.90;;;;;;5144737;27;19938;-96
2022/02/07 18:42:56;;;;;;;;;;;0.70;99.90;;;;;;5140388;27;20113;-96
2022/02/07 18:45:27;;;;;;;;;;;0.80;99.90;;;;;;5133405;27;20017;-96
2022/02/07 18:47:55;;;;;;;;;;;0.90;99.90;;;;;;5133739;27;19943;-96
2022/02/07 18:50:21;;;;;;;;;;;1.00;99.90;;;;;;5122463;27;19908;-96
2022/02/07 18:52:49;;;;;;;;;;;1.10;99.90;;;;;;5116754;27;19957;-90
2022/02/07 19:02:34;;;;;;;;;;;1.40;99.90;;;;;;5113135;27;19916;-89
2022/02/07 19:05:16;;;;;;;;;;;1.50;99.90;;;;;;5114906;28;19912;-92
2022/02/07 19:07:43;;;;;;;;;;;1.50;99.90;;;;;;5109710;28;19912;-93
2022/02/07 19:10:09;;;;;;;;;;;1.60;99.90;;;;;;5110709;28;19912;-91
2022/02/07 19:12:36;;;;;;;;;;;1.70;99.90;;;;;;5116465;28;19973;-92
2022/02/07 19:15:04;;;;;;;;;;;1.80;99.90;;;;;;5103272;28;19951;-92
2022/02/07 19:17:32;;;;;;;;;;;1.80;99.90;;;;;;5107316;28;19913;-91
2022/02/07 19:20:01;;;;;;;;;;;1.90;99.90;;;;;;5105500;28;20362;-92
2022/02/07 19:22:30;;;;;;;;;;;2.00;99.90;;;;;;5101603;28;19916;-92
2022/02/07 19:25:00;;;;;;;;;;;2.00;99.90;;;;;;5100193;28;19920;-91
2022/02/07 19:27:40;;;;;;;;;;;2.10;99.90;;;;;;5106386;28;19911;-93
2022/02/07 19:30:09;;;;;;;;;;;2.10;99.90;;;;;;5110064;28;19912;-92
2022/02/07 19:32:41;;;;;;;;;;;2.10;99.90;;;;;;5104491;28;19939;-91
2022/02/07 19:35:18;;;;;;;;;;;2.20;99.90;;;;;;5112609;28;19916;-92
2022/02/07 19:40:52;;;;;;;;;;;2.20;99.90;;;;;;5114167;28;19923;-92
